Flight Track Log - Related Links

Times and Time Zones

All times are in EDT time to prevent confusion due to time zone crossing. See the SWA2236 flight status page for this flight to view local times or setup timezone preferences in your user account.

Time Position Orientation Groundspeed Altitude Reporting Facility
EDT Latitude Longitude Course Direction KTS MPH feet Rate Location/Type
Fri 12:13:33 PM 37.7167 -122.2500 322° Northwest 158 182 600  Level Northern Cal TRACON
Fri 12:14:27 PM 37.7500 -122.2833 322° Northwest 213 245 2,500 2,474 Climbing Northern Cal TRACON
Fri 12:15:27 PM 37.7667 -122.3667 284° West 234 269 5,300 3,150 Climbing Northern Cal TRACON
Fri 12:16:27 PM 37.7000 -122.4000 202° Southwest 238 274 8,800 2,900 Climbing Northern Cal TRACON
Fri 12:17:27 PM 37.6333 -122.4000 180° South 282 325 11,100 2,586 Climbing Northern Cal TRACON
Fri 12:18:23 PM 37.5578 -122.4064 184° South 292 336 13,800 3,026 Climbing Oakland Center
Fri 12:19:24 PM 37.4694 -122.4172 186° South 313 360 17,000 2,585 Climbing Oakland Center
Fri 12:20:26 PM 37.4131 -122.3358 131° Southeast 337 388 19,100 2,000 Climbing Oakland Center
Fri 12:21:27 PM 37.3869 -122.2044 104° East 384 442 21,100 2,098 Climbing Oakland Center
Fri 12:22:29 PM 37.3594 -122.0667 104° East 404 465 23,400 2,195 Climbing Oakland Center
Fri 12:23:30 PM 37.3308 -121.9250 104° East 418 481 25,600 2,000 Climbing Oakland Center
Fri 12:24:32 PM 37.3022 -121.7806 104° East 428 493 27,500 2,244 Climbing Oakland Center
Fri 12:25:33 PM 37.2656 -121.5986 104° East 444 511 30,200 2,244 Climbing Oakland Center
Fri 12:26:35 PM 37.2347 -121.4489 104° East 444 511 32,100 1,366 Climbing Oakland Center
Fri 12:27:36 PM 37.2044 -121.3011 104° East 441 507 33,000 439 Climbing Oakland Center
Fri 12:28:38 PM 37.1733 -121.1531 105° East 440 506 33,000  Level Oakland Center
Fri 12:29:39 PM 37.1419 -121.0042 105° East 443 510 33,000  Level Oakland Center
Fri 12:30:41 PM 37.1111 -120.8575 105° East 438 504 33,000  Level Oakland Center
Fri 12:31:43 PM 37.0789 -120.7111 105° East 437 503 33,000  Level Oakland Center
Fri 12:32:44 PM 37.0414 -120.5336 105° East 439 505 33,000  Level Oakland Center
Fri 12:33:46 PM 37.0094 -120.3867 105° East 437 503 33,000  Level Oakland Center
Fri 12:34:47 PM 36.9975 -120.2350 96° East 439 505 33,000  Level Oakland Center
Fri 12:35:49 PM 37.0172 -120.0844 81° East 450 518 33,000  Level Oakland Center
Fri 12:36:50 PM 37.0081 -119.9231 94° East 459 528 33,000  Level Oakland Center
Fri 12:37:52 PM 36.9994 -119.7597 94° East 470 541 33,000  Level Oakland Center
Fri 12:38:54 PM 36.9883 -119.5639 94° East 470 541 33,000  Level Oakland Center
Fri 12:39:55 PM 36.9792 -119.3978 94° East 476 548 33,000  Level Oakland Center
Fri 12:40:57 PM 36.9706 -119.2325 94° East 476 548 33,000  Level Oakland Center
Fri 12:41:58 PM 36.9600 -119.0664 94° East 478 550 33,000  Level Oakland Center
Fri 12:43:00 PM 36.9500 -118.9011 94° East 478 550 33,000  Level Oakland Center
Fri 12:44:02 PM 36.9403 -118.7361 94° East 478 550 33,000  Level Oakland Center
Fri 12:45:03 PM 36.9297 -118.5706 95° East 478 550 33,000  Level Oakland Center
Fri 12:46:13 PM 36.9172 -118.3631 94° East 477 549 33,000  Level Los Angeles Center
Fri 12:47:15 PM 36.9067 -118.1978 95° East 479 551 33,000  Level Los Angeles Center
Fri 12:48:08 PM 36.8969 -118.0672 95° East 473 544 33,000 -574 Level Oakland Center
Fri 12:49:10 PM 36.8839 -117.8717 95° East 471 542 31,900 -976 Descending Oakland Center
Fri 12:50:11 PM 36.8719 -117.7053 95° East 478 550 31,000 -439 Descending Oakland Center
Fri 12:51:13 PM 36.8606 -117.5411 95° East 478 550 31,000  Level Oakland Center
Fri 12:52:14 PM 36.8489 -117.3789 95° East 473 544 31,000  Level Oakland Center
Fri 12:53:16 PM 36.8372 -117.2197 95° East 467 537 31,000  Level Oakland Center
Fri 12:54:18 PM 36.8239 -117.0583 96° East 466 536 31,000  Level Oakland Center
Fri 12:55:19 PM 36.8119 -116.8975 95° East 467 537 31,000  Level Oakland Center
Fri 12:56:34 PM 36.7625 -116.6950 107° East 441 507 31,000 -832 Level Los Angeles Center
Fri 12:57:36 PM 36.6850 -116.5822 131° Southeast 425 489 29,100 -1,984 Descending Los Angeles Center
Fri 12:58:38 PM 36.6097 -116.4747 131° Southeast 414 476 26,900 -2,081 Descending Los Angeles Center
Fri 12:59:40 PM 36.5358 -116.3675 131° Southeast 410 472 24,800 -2,081 Descending Los Angeles Center
Fri 01:00:42 PM 36.4611 -116.2642 132° Southeast 405 466 22,600 -2,226 Descending Los Angeles Center
Fri 01:01:44 PM 36.3783 -116.1464 131° Southeast 389 448 20,200 -2,100 Descending Los Angeles Center
Fri 01:02:42 PM 36.3156 -116.0594 132° Southeast 371 427 18,400 -1,965 Descending Los Angeles Center
Fri 01:03:37 PM 36.2522 -115.9731 132° Southeast 367 422 16,500 -1,180 Descending Los Angeles Center
Fri 01:04:44 PM 36.1900 -115.8625 125° Southeast 345 397 16,000 -485 Descending Los Angeles Center
Fri 01:05:53 PM 36.1506 -115.7439 112° Southeast 321 369 15,400 -689 Descending Los Angeles Center
Fri 01:06:46 PM 36.1231 -115.6581 112° Southeast 324 373 14,600 -667 Descending Los Angeles Center
Fri 01:07:59 PM 36.0814 -115.5333 112° Southeast 313 360 14,000 -836 Descending Los Angeles Center
Fri 01:08:48 PM 36.0614 -115.4497 106° East 321 369 12,900 -1,473 Descending Los Angeles Center
Fri 01:09:49 PM 36.0433 -115.3464 102° East 307 353 11,300 -1,547 Descending Los Angeles Center
Fri 01:10:56 PM 36.0244 -115.2383 102° East 299 344 9,600 -1,478 Descending Los Angeles Center
Fri 01:12:03 PM 36.0128 -115.1253 97° East 287 330 8,000 -787 Descending Los Angeles Center
Fri 01:12:58 PM 36.0081 -115.0444 94° East 246 283 8,000 -359 Level Los Angeles Center
Fri 01:14:00 PM 36.0094 -114.9722 89° East 198 228 7,300 -872 Descending Los Angeles Center
Fri 01:14:55 PM 36.0131 -114.9097 86° East 196 226 6,300 -1,096 Descending Los Angeles Center
Fri 01:15:55 PM 36.0619 -114.9147 355° North 194 223 5,200 -857 Descending Los Angeles Center
Fri 01:16:26 PM 36.0717 -114.9364 299° West 197 227 5,000 -706 Descending Los Angeles Center
Fri 01:17:03 PM 36.0739 -114.9800 274° West 195 224 4,400 -990 Descending Los Angeles Center
Fri 01:18:09 PM 36.0725 -115.0522 269° West 178 205 3,300 -945 Descending Los Angeles Center
Fri 01:19:10 PM 36.0733 -115.1053 271° West 152 175 2,400 -885 Descending Los Angeles Center
Fri 01:21:00 PM 36.0667 -115.1500 270° West  Level FlightAware Approximate
Fri 01:28:00 PM 36.0801 -115.1523 270° West  Level Estimated

Login

Don't have an account? Register now (free) for customized features, flight alerts, and more!